< Typhoon 197406 1974 Season Typhoon 197408 >
Typhoon 197407 (FREDA)
General InformationTrack Information on Google Maps || Disaster Info.ResourceGoogle EarthGE AnimationAtom FeedGeoJSON
Detalied Best Track (Time Zone = UTC)
Year Month Day Hour Lat. Long. Pressure (hPa) Wind (kt) Class Image Chart
1974 6 17 00 17.0 147.0 1010 0 2 -- Chart
1974 6 17 06 17.2 146.0 1008 0 2 -- Chart
1974 6 17 12 17.4 145.0 1008 0 2 -- Chart
1974 6 17 18 17.8 143.8 1008 0 2 -- Chart
1974 6 18 00 18.4 142.8 1008 0 2 -- Chart
1974 6 18 06 19.0 142.2 1004 0 2 -- Chart
1974 6 18 12 19.8 142.0 1004 0 2 -- Chart
1974 6 18 18 20.5 142.0 1004 0 2 -- Chart
1974 6 19 00 21.0 142.0 1004 0 2 -- Chart
1974 6 19 06 21.7 142.0 1004 0 2 -- Chart
1974 6 19 12 22.7 142.3 1004 0 2 -- Chart
1974 6 19 18 23.9 142.9 1004 0 2 -- Chart
1974 6 20 00 25.2 144.3 1006 0 2 -- Chart
1974 6 20 06 26.0 146.2 1006 0 2 -- Chart
1974 6 20 12 26.3 147.9 1006 0 2 -- Chart
1974 6 20 18 26.3 149.6 1004 0 2 -- Chart
1974 6 21 00 26.1 151.3 998 0 2 -- Chart
1974 6 21 06 25.7 153.0 990 0 9 -- Chart
1974 6 21 12 25.2 154.7 990 0 9 -- Chart
1974 6 21 18 25.1 156.6 994 0 9 -- Chart
1974 6 22 00 25.2 158.6 994 0 9 -- Chart
1974 6 22 06 25.4 160.8 996 0 2 -- Chart
1974 6 22 12 26.2 164.0 1000 0 2 -- Chart
1974 6 22 18 27.4 167.4 1000 0 2 -- Chart
1974 6 23 00 29.1 170.9 1000 0 2 -- Chart
1974 6 23 06 30.8 174.4 1000 0 2 -- Chart
1974 6 23 12 36.0 176.8 1000 0 2 -- Chart
Japan Meteorological Agency Best Track Data | Correction Date : 1989-06-01
< Typhoon 197406 1974 Season Typhoon 197408 >

Help